createdAt,value
2023-03-04T00:01:15.895Z,85.03
2023-03-04T00:03:42.814Z,84.58
2023-03-04T00:06:09.710Z,84.93
2023-03-04T00:08:36.275Z,85.25
2023-03-04T00:11:02.745Z,86.94
2023-03-04T00:13:29.313Z,86.74
2023-03-04T00:15:55.887Z,86.29
2023-03-04T00:18:22.342Z,86.00
2023-03-04T00:20:49.770Z,85.60
2023-03-04T00:23:16.685Z,86.14
2023-03-04T00:25:43.727Z,86.00
2023-03-04T00:28:10.493Z,85.99
2023-03-04T00:30:37.019Z,85.78
2023-03-04T00:33:03.544Z,86.19
2023-03-04T00:35:30.165Z,86.41
2023-03-04T00:37:56.755Z,86.40
2023-03-04T00:40:23.216Z,86.27
2023-03-04T00:42:49.839Z,85.92
2023-03-04T00:45:16.373Z,86.01
2023-03-04T00:47:42.913Z,86.05
2023-03-04T00:50:10.209Z,85.84
2023-03-04T00:52:36.709Z,85.52
2023-03-04T00:55:03.521Z,85.58
2023-03-04T00:57:29.973Z,85.57
2023-03-04T00:59:56.499Z,85.77
2023-03-04T01:02:23.139Z,85.78
2023-03-04T01:04:49.698Z,85.86
2023-03-04T01:07:16.304Z,85.49
2023-03-04T01:09:42.843Z,86.09
2023-03-04T01:12:09.398Z,85.44
2023-03-04T01:14:35.938Z,85.38
2023-03-04T01:17:02.545Z,85.04
2023-03-04T01:19:29.083Z,84.98
2023-03-04T01:21:55.596Z,84.43
2023-03-04T01:24:22.346Z,84.21
2023-03-04T01:26:48.842Z,84.52
2023-03-04T01:29:15.350Z,84.45
2023-03-04T01:31:41.810Z,84.53
2023-03-04T01:34:09.872Z,84.07
2023-03-04T01:36:36.502Z,84.02
2023-03-04T01:39:03.473Z,83.79
2023-03-04T01:41:29.991Z,84.53
2023-03-04T01:44:00.814Z,84.87
2023-03-04T01:46:27.590Z,85.26
2023-03-04T01:48:54.382Z,84.92
2023-03-04T01:51:22.008Z,85.21
2023-03-04T01:53:54.871Z,84.56
2023-03-04T01:56:28.111Z,84.96
2023-03-04T01:59:15.992Z,84.33
2023-03-04T02:01:48.062Z,84.89
2023-03-04T02:04:16.429Z,85.10
2023-03-04T02:06:43.615Z,85.38
2023-03-04T02:09:10.616Z,85.69
2023-03-04T02:11:37.885Z,85.42
2023-03-04T02:14:05.846Z,85.90
2023-03-04T02:16:32.993Z,85.53
2023-03-04T02:19:00.419Z,84.97
2023-03-04T02:21:33.247Z,85.47
2023-03-04T02:24:24.181Z,85.13
2023-03-04T02:26:50.819Z,85.41
2023-03-04T02:29:18.041Z,85.20
2023-03-04T02:31:49.987Z,85.89
2023-03-04T02:34:18.288Z,84.87
2023-03-04T02:36:46.274Z,84.84
2023-03-04T02:39:33.664Z,85.65
2023-03-04T02:42:01.906Z,85.63
2023-03-04T02:44:31.284Z,86.03
2023-03-04T02:46:59.309Z,86.09
2023-03-04T02:49:28.062Z,85.45
2023-03-04T02:52:07.070Z,86.02
2023-03-04T02:54:34.671Z,85.41
2023-03-04T02:57:07.794Z,86.94
2023-03-04T02:59:35.864Z,86.93
2023-03-04T03:02:02.507Z,86.88
2023-03-04T03:04:29.435Z,86.83
2023-03-04T03:06:56.016Z,87.04
2023-03-04T03:09:23.002Z,86.09
2023-03-04T03:11:49.738Z,86.73
2023-03-04T03:14:16.464Z,86.85
2023-03-04T03:16:43.478Z,86.79
2023-03-04T03:19:10.141Z,87.28
2023-03-04T03:21:36.609Z,87.47
2023-03-04T03:24:03.164Z,87.61
2023-03-04T03:26:29.680Z,87.45
2023-03-04T03:28:56.159Z,87.23
2023-03-04T03:31:22.689Z,86.45
2023-03-04T03:33:49.426Z,86.90
2023-03-04T03:36:15.987Z,86.70
2023-03-04T03:38:42.515Z,86.17
2023-03-04T03:41:09.106Z,86.18
2023-03-04T03:43:35.641Z,86.28
2023-03-04T03:46:02.206Z,85.67
2023-03-04T03:48:28.710Z,85.60
2023-03-04T03:50:55.203Z,85.34
2023-03-04T03:53:21.716Z,84.94
2023-03-04T03:55:48.222Z,85.87
2023-03-04T03:58:14.728Z,84.83
2023-03-04T04:00:41.253Z,84.79
2023-03-04T04:03:08.044Z,84.86
2023-03-04T04:05:34.560Z,84.59
2023-03-04T04:08:01.037Z,85.30
2023-03-04T04:10:27.613Z,85.23
2023-03-04T04:12:54.066Z,84.56
2023-03-04T04:15:20.678Z,85.06
2023-03-04T04:17:47.219Z,84.45
2023-03-04T04:20:13.741Z,84.28
2023-03-04T04:22:40.340Z,83.98
2023-03-04T04:25:08.912Z,84.37
2023-03-04T04:27:35.600Z,84.30
2023-03-04T04:30:02.304Z,84.32
2023-03-04T04:32:28.806Z,84.73
2023-03-04T04:34:55.316Z,84.89
2023-03-04T04:37:21.830Z,84.95
2023-03-04T04:39:48.382Z,84.00
2023-03-04T04:42:14.947Z,83.84
2023-03-04T04:44:41.454Z,84.04
2023-03-04T04:47:09.171Z,83.71
2023-03-04T04:49:35.896Z,84.24
2023-03-04T04:52:02.597Z,84.33
2023-03-04T04:54:29.149Z,84.44
2023-03-04T04:56:55.710Z,84.92
2023-03-04T04:59:22.348Z,86.04
2023-03-04T05:01:48.794Z,85.22
2023-03-04T05:04:15.375Z,84.95
2023-03-04T05:06:42.029Z,84.96
2023-03-04T05:09:08.574Z,85.34
2023-03-04T05:11:35.054Z,85.64
2023-03-04T05:14:01.834Z,85.11
2023-03-04T05:16:28.472Z,85.07
2023-03-04T05:18:54.948Z,85.34
2023-03-04T05:21:21.409Z,84.93
2023-03-04T05:23:47.869Z,84.89
2023-03-04T05:26:17.144Z,84.76
2023-03-04T05:28:44.530Z,84.40
2023-03-04T05:31:11.659Z,84.92
2023-03-04T05:33:38.225Z,85.01
2023-03-04T05:36:06.575Z,85.32
2023-03-04T05:38:33.536Z,84.45
2023-03-04T05:41:02.716Z,84.68
2023-03-04T05:43:31.611Z,84.68
2023-03-04T05:45:58.194Z,85.05
2023-03-04T05:48:24.775Z,85.16
2023-03-04T05:50:59.934Z,84.83
2023-03-04T05:53:26.520Z,85.48
2023-03-04T05:55:53.386Z,85.37
2023-03-04T05:58:20.669Z,85.06
2023-03-04T06:00:47.778Z,85.31
2023-03-04T06:03:23.066Z,85.52
2023-03-04T06:05:49.603Z,86.32
2023-03-04T06:08:18.209Z,85.10
2023-03-04T06:10:45.227Z,85.72
2023-03-04T06:13:11.823Z,85.18
2023-03-04T06:15:39.868Z,84.89
2023-03-04T06:18:07.633Z,84.38
2023-03-04T06:20:34.150Z,85.00
2023-03-04T06:23:00.658Z,84.95
2023-03-04T06:25:28.166Z,84.70
2023-03-04T06:27:55.290Z,85.45
2023-03-04T06:30:22.027Z,84.58
2023-03-04T06:32:48.569Z,85.86
2023-03-04T06:35:16.669Z,85.17
2023-03-04T06:37:43.566Z,84.81
2023-03-04T06:40:11.182Z,84.52
2023-03-04T06:42:37.819Z,84.71
2023-03-04T06:45:05.005Z,84.40
2023-03-04T06:47:31.563Z,83.95
2023-03-04T06:49:58.494Z,83.86
2023-03-04T06:52:25.059Z,83.28
2023-03-04T06:54:51.574Z,82.72
2023-03-04T06:57:18.249Z,82.10
2023-03-04T06:59:44.816Z,81.72
2023-03-04T07:02:14.282Z,81.37
2023-03-04T07:04:41.094Z,80.59
2023-03-04T07:07:07.593Z,79.83
2023-03-04T07:09:34.304Z,79.93
2023-03-04T07:12:01.054Z,78.63
2023-03-04T07:14:28.029Z,78.17
2023-03-04T07:16:54.890Z,78.11
2023-03-04T07:19:21.657Z,77.51
2023-03-04T07:21:48.207Z,76.73
2023-03-04T07:24:14.935Z,76.05
2023-03-04T07:26:41.404Z,75.56
2023-03-04T07:29:07.925Z,74.95
2023-03-04T07:31:35.397Z,74.06
2023-03-04T07:34:05.432Z,74.17
2023-03-04T07:36:33.344Z,73.09
2023-03-04T07:38:59.845Z,72.51
2023-03-04T07:41:28.231Z,71.48
2023-03-04T07:43:56.445Z,71.05
2023-03-04T07:46:23.250Z,70.54
2023-03-04T07:48:49.799Z,69.75
2023-03-04T07:51:19.901Z,68.34
2023-03-04T07:53:49.331Z,67.42
2023-03-04T07:56:19.695Z,67.55
2023-03-04T07:58:46.749Z,67.40
2023-03-04T08:01:15.646Z,65.61
2023-03-04T08:03:42.517Z,65.41
2023-03-04T08:06:11.510Z,65.12
2023-03-04T08:08:38.478Z,64.49
2023-03-04T08:11:10.641Z,63.33
2023-03-04T08:13:37.476Z,63.36
2023-03-04T08:16:04.975Z,62.69
2023-03-04T08:18:31.760Z,63.40
2023-03-04T08:20:58.311Z,60.87
2023-03-04T08:23:25.262Z,61.62
2023-03-04T08:25:51.862Z,60.68
2023-03-04T08:28:18.757Z,60.34
2023-03-04T08:30:45.628Z,60.16
2023-03-04T08:33:12.151Z,59.99
2023-03-04T08:35:40.297Z,59.26
2023-03-04T08:38:07.113Z,58.73
2023-03-04T08:40:33.723Z,58.27
2023-03-04T08:43:00.757Z,58.51
2023-03-04T08:45:27.329Z,57.92
2023-03-04T08:47:53.834Z,57.04
2023-03-04T08:50:22.494Z,56.79
2023-03-04T08:52:49.493Z,56.14
2023-03-04T08:55:16.353Z,56.12
2023-03-04T08:57:42.838Z,55.35
2023-03-04T09:00:10.682Z,54.06
2023-03-04T09:02:37.144Z,52.98
2023-03-04T09:05:04.105Z,52.81
2023-03-04T09:07:30.667Z,52.71
2023-03-04T09:09:57.184Z,52.49
2023-03-04T09:12:23.761Z,51.88
2023-03-04T09:15:04.567Z,51.71
2023-03-04T09:17:35.221Z,51.10
2023-03-04T09:20:04.270Z,50.53
2023-03-04T09:22:31.131Z,49.65
2023-03-04T09:24:57.632Z,48.87
2023-03-04T09:27:24.500Z,48.40
2023-03-04T09:29:51.092Z,48.72
2023-03-04T09:32:17.604Z,47.63
2023-03-04T09:34:44.180Z,47.98
2023-03-04T09:37:10.839Z,47.16
2023-03-04T09:39:37.535Z,45.56
2023-03-04T09:42:06.286Z,46.24
2023-03-04T09:44:40.956Z,44.94
2023-03-04T09:47:12.618Z,44.72
2023-03-04T09:49:42.168Z,46.18
2023-03-04T09:52:42.106Z,47.72
2023-03-04T09:55:28.316Z,45.93
2023-03-04T09:58:07.121Z,46.56
2023-03-04T10:00:42.855Z,46.17
2023-03-04T10:03:12.269Z,47.20
2023-03-04T10:06:00.881Z,46.17
2023-03-04T10:08:45.605Z,45.84
2023-03-04T10:11:21.475Z,47.54
2023-03-04T10:14:01.482Z,46.06
2023-03-04T10:16:34.730Z,45.69
2023-03-04T10:19:13.453Z,46.82
2023-03-04T10:21:44.880Z,45.44
2023-03-04T10:24:14.596Z,45.39
2023-03-04T10:26:45.834Z,45.92
2023-03-04T10:29:18.464Z,44.66
2023-03-04T10:31:46.250Z,44.16
2023-03-04T10:34:14.392Z,42.87
2023-03-04T10:37:05.646Z,44.16
2023-03-04T10:39:35.853Z,42.24
2023-03-04T10:42:07.655Z,42.63
2023-03-04T10:44:35.207Z,42.08
2023-03-04T10:47:02.270Z,42.95
2023-03-04T10:49:29.854Z,41.10
2023-03-04T10:52:21.250Z,41.24
2023-03-04T10:54:52.834Z,42.42
2023-03-04T10:57:21.988Z,41.16
2023-03-04T11:00:00.085Z,41.93
2023-03-04T11:02:36.527Z,42.75
2023-03-04T11:05:18.470Z,40.85
2023-03-04T11:07:57.487Z,40.67
2023-03-04T11:10:31.905Z,40.04
2023-03-04T11:12:58.296Z,39.71
2023-03-04T11:15:29.369Z,39.50
2023-03-04T11:18:12.408Z,39.25
2023-03-04T11:20:49.357Z,40.07
2023-03-04T11:23:23.737Z,41.28
2023-03-04T11:25:58.677Z,39.60
2023-03-04T11:29:05.671Z,37.99
2023-03-04T11:31:40.387Z,39.40
2023-03-04T11:34:30.003Z,38.88
2023-03-04T11:37:03.599Z,38.20
2023-03-04T11:39:35.789Z,37.25
2023-03-04T11:42:13.103Z,37.45
2023-03-04T11:44:41.510Z,36.79
2023-03-04T11:47:45.333Z,38.30
2023-03-04T11:50:21.066Z,37.26
2023-03-04T11:53:23.835Z,37.08
2023-03-04T11:56:27.344Z,37.24
2023-03-04T11:59:27.930Z,38.47
2023-03-04T12:02:17.724Z,38.09
2023-03-04T12:04:44.223Z,38.26
2023-03-04T12:07:41.950Z,38.44
2023-03-04T12:10:37.095Z,37.11
2023-03-04T12:13:22.026Z,37.40
2023-03-04T12:16:13.054Z,37.32
2023-03-04T12:19:05.020Z,36.45
2023-03-04T12:21:46.375Z,37.91
2023-03-04T12:24:21.995Z,36.30
2023-03-04T12:27:40.981Z,36.62
2023-03-04T12:30:26.976Z,36.65
2023-03-04T12:33:06.605Z,37.19
2023-03-04T12:35:47.235Z,36.95
2023-03-04T12:38:19.873Z,36.92
2023-03-04T12:40:52.939Z,40.11
2023-03-04T12:43:44.976Z,38.53
2023-03-04T12:46:26.301Z,37.76
2023-03-04T12:49:35.706Z,38.72
2023-03-04T12:52:43.443Z,36.19
2023-03-04T12:55:17.287Z,35.73
2023-03-04T12:57:43.992Z,35.99
2023-03-04T13:00:13.087Z,35.69
2023-03-04T13:02:52.707Z,36.74
2023-03-04T13:05:46.917Z,36.97
2023-03-04T13:08:31.425Z,36.89
2023-03-04T13:11:03.586Z,36.24
2023-03-04T13:13:34.515Z,36.02
2023-03-04T13:16:11.495Z,35.23
2023-03-04T13:18:40.886Z,35.00
2023-03-04T13:21:20.872Z,35.04
2023-03-04T13:23:47.506Z,34.92
2023-03-04T13:26:28.372Z,33.99
2023-03-04T13:29:08.762Z,35.26
2023-03-04T13:32:05.526Z,35.65
2023-03-04T13:34:53.987Z,35.17
2023-03-04T13:37:30.070Z,35.57
2023-03-04T13:40:18.201Z,35.51
2023-03-04T13:42:45.056Z,36.21
2023-03-04T13:45:36.059Z,36.38
2023-03-04T13:48:08.156Z,36.52
2023-03-04T13:50:39.286Z,37.59
2023-03-04T13:53:37.961Z,38.43
2023-03-04T13:56:40.858Z,38.18
2023-03-04T13:59:07.292Z,37.28
2023-03-04T14:01:41.456Z,37.27
2023-03-04T14:04:38.773Z,38.49
2023-03-04T14:07:21.849Z,38.42
2023-03-04T14:09:56.259Z,37.92
2023-03-04T14:12:23.243Z,38.62
2023-03-04T14:14:53.987Z,37.74
2023-03-04T14:17:33.637Z,39.07
2023-03-04T14:20:01.133Z,39.56
2023-03-04T14:22:33.804Z,38.77
2023-03-04T14:25:19.140Z,40.39
2023-03-04T14:27:47.098Z,40.37
2023-03-04T14:30:39.186Z,40.17
2023-03-04T14:33:13.967Z,42.02
2023-03-04T14:35:50.106Z,42.18
2023-03-04T14:38:42.646Z,42.16
2023-03-04T14:41:18.662Z,42.73
2023-03-04T14:44:08.043Z,43.06
2023-03-04T14:46:40.343Z,43.47
2023-03-04T14:49:10.741Z,43.23
2023-03-04T14:51:39.698Z,42.39
2023-03-04T14:54:06.717Z,41.77
2023-03-04T14:56:35.850Z,43.40
2023-03-04T14:59:02.598Z,44.97
2023-03-04T15:01:35.397Z,45.58
2023-03-04T15:04:03.521Z,47.15
2023-03-04T15:06:35.500Z,47.44
2023-03-04T15:09:08.282Z,47.61
2023-03-04T15:11:52.495Z,46.86
2023-03-04T15:14:52.051Z,46.16
2023-03-04T15:17:38.503Z,46.09
2023-03-04T15:20:08.031Z,46.41
2023-03-04T15:23:07.350Z,47.29
2023-03-04T15:25:35.203Z,47.60
2023-03-04T15:28:03.066Z,47.83
2023-03-04T15:30:34.373Z,47.92
2023-03-04T15:33:01.079Z,46.52
2023-03-04T15:35:30.438Z,46.37
2023-03-04T15:37:57.742Z,46.45
2023-03-04T15:40:26.508Z,46.99
2023-03-04T15:42:54.757Z,46.71
2023-03-04T15:45:24.576Z,46.96
2023-03-04T15:47:51.066Z,46.72
2023-03-04T15:50:19.196Z,46.92
2023-03-04T15:52:46.117Z,47.31
2023-03-04T15:55:18.746Z,48.03
2023-03-04T15:57:52.486Z,48.28
2023-03-04T16:00:19.471Z,48.35
2023-03-04T16:02:46.394Z,47.17
2023-03-04T16:05:12.970Z,48.28
2023-03-04T16:07:42.803Z,47.36
2023-03-04T16:10:20.044Z,47.96
2023-03-04T16:12:46.772Z,48.72
2023-03-04T16:15:16.581Z,49.50
2023-03-04T16:17:45.778Z,50.09
2023-03-04T16:20:14.626Z,50.19
2023-03-04T16:22:43.758Z,49.79
2023-03-04T16:25:12.906Z,50.45
2023-03-04T16:27:40.820Z,50.69
2023-03-04T16:30:19.610Z,50.28
2023-03-04T16:32:46.165Z,50.49
2023-03-04T16:35:13.999Z,51.06
2023-03-04T16:37:41.486Z,50.73
2023-03-04T16:40:12.398Z,50.71
2023-03-04T16:42:40.118Z,51.06
2023-03-04T16:45:10.493Z,51.34
2023-03-04T16:47:37.239Z,51.74
2023-03-04T16:50:04.055Z,52.02
2023-03-04T16:52:33.317Z,53.25
2023-03-04T16:55:00.428Z,53.05
2023-03-04T16:57:28.699Z,52.64
2023-03-04T16:59:55.481Z,53.32
2023-03-04T17:02:24.489Z,53.28
2023-03-04T17:04:51.123Z,53.01
2023-03-04T17:07:17.868Z,53.41
2023-03-04T17:09:45.414Z,52.83
2023-03-04T17:12:12.582Z,53.53
2023-03-04T17:14:42.229Z,53.79
2023-03-04T17:17:08.902Z,54.89
2023-03-04T17:19:35.540Z,55.74
2023-03-04T17:22:02.617Z,56.27
2023-03-04T17:24:29.625Z,56.88
2023-03-04T17:26:56.274Z,57.51
2023-03-04T17:29:23.294Z,57.97
2023-03-04T17:31:49.768Z,58.03
2023-03-04T17:34:18.054Z,58.00
2023-03-04T17:36:44.611Z,58.32
2023-03-04T17:39:11.576Z,58.61
2023-03-04T17:41:38.069Z,58.91
2023-03-04T17:44:05.907Z,58.38
2023-03-04T17:46:32.467Z,59.43
2023-03-04T17:48:59.527Z,59.44
2023-03-04T17:51:37.588Z,59.73
2023-03-04T17:54:05.903Z,60.57
2023-03-04T17:56:33.586Z,60.14
2023-03-04T17:59:04.048Z,60.78
2023-03-04T18:01:30.535Z,60.70
2023-03-04T18:03:56.993Z,60.80
2023-03-04T18:06:25.168Z,61.12
2023-03-04T18:08:52.990Z,61.80
2023-03-04T18:11:21.465Z,61.79
2023-03-04T18:13:48.847Z,61.86
2023-03-04T18:16:18.855Z,62.04
2023-03-04T18:18:45.750Z,62.00
2023-03-04T18:21:13.602Z,62.38
2023-03-04T18:23:40.170Z,62.51
2023-03-04T18:26:06.825Z,62.39
2023-03-04T18:28:33.535Z,62.96
2023-03-04T18:31:01.143Z,62.73
2023-03-04T18:33:29.389Z,62.93
2023-03-04T18:36:00.937Z,62.99
2023-03-04T18:38:28.019Z,63.09
2023-03-04T18:40:59.056Z,63.74
2023-03-04T18:43:26.712Z,63.63
2023-03-04T18:46:30.836Z,63.90
2023-03-04T18:49:01.883Z,63.34
2023-03-04T18:51:28.624Z,63.85
2023-03-04T18:53:55.144Z,63.89
2023-03-04T18:56:38.195Z,64.02
2023-03-04T18:59:15.230Z,64.52
2023-03-04T19:01:42.032Z,64.40
2023-03-04T19:04:09.357Z,63.97
2023-03-04T19:06:35.967Z,64.43
2023-03-04T19:09:02.625Z,64.90
2023-03-04T19:11:31.482Z,65.04
2023-03-04T19:13:58.039Z,64.73
2023-03-04T19:16:25.271Z,64.20
2023-03-04T19:18:52.306Z,64.39
2023-03-04T19:21:19.406Z,64.87
2023-03-04T19:23:46.056Z,65.01
2023-03-04T19:26:13.737Z,65.58
2023-03-04T19:28:40.291Z,65.72
2023-03-04T19:31:08.315Z,65.28
2023-03-04T19:33:36.818Z,65.90
2023-03-04T19:36:05.540Z,65.53
2023-03-04T19:38:33.527Z,65.85
2023-03-04T19:41:09.058Z,65.89
2023-03-04T19:43:38.609Z,66.33
2023-03-04T19:46:07.497Z,66.54
2023-03-04T19:48:35.475Z,66.04
2023-03-04T19:51:04.491Z,66.49
2023-03-04T19:53:34.631Z,65.95
2023-03-04T19:56:01.541Z,66.29
2023-03-04T19:58:28.095Z,66.75
2023-03-04T20:00:56.107Z,66.72
2023-03-04T20:03:24.067Z,66.64
2023-03-04T20:05:50.598Z,66.71
2023-03-04T20:08:17.166Z,66.68
2023-03-04T20:10:43.741Z,66.68
2023-03-04T20:13:10.365Z,67.04
2023-03-04T20:15:37.551Z,66.56
2023-03-04T20:18:04.565Z,66.74
2023-03-04T20:20:31.129Z,66.66
2023-03-04T20:22:58.072Z,66.91
2023-03-04T20:25:25.287Z,66.83
2023-03-04T20:27:51.830Z,66.60
2023-03-04T20:30:18.696Z,66.78
2023-03-04T20:32:45.444Z,67.56
2023-03-04T20:35:15.007Z,67.47
2023-03-04T20:37:42.598Z,67.39
2023-03-04T20:40:13.010Z,67.50
2023-03-04T20:42:39.527Z,68.13
2023-03-04T20:45:06.935Z,67.44
2023-03-04T20:47:33.457Z,67.91
2023-03-04T20:49:59.969Z,67.57
2023-03-04T20:52:26.537Z,68.13
2023-03-04T20:54:53.049Z,68.22
2023-03-04T20:57:19.701Z,68.34
2023-03-04T20:59:46.159Z,68.51
2023-03-04T21:02:15.654Z,68.67
2023-03-04T21:04:42.264Z,68.61
2023-03-04T21:07:09.164Z,68.37
2023-03-04T21:09:35.781Z,68.77
2023-03-04T21:12:02.342Z,68.68
2023-03-04T21:14:30.994Z,68.98
2023-03-04T21:17:00.117Z,68.25
2023-03-04T21:19:30.031Z,68.72
2023-03-04T21:21:58.070Z,68.97
2023-03-04T21:24:28.283Z,69.54
2023-03-04T21:26:54.887Z,69.73
2023-03-04T21:29:23.928Z,69.49
2023-03-04T21:32:13.040Z,70.22
2023-03-04T21:34:52.029Z,70.18
2023-03-04T21:37:20.601Z,70.58
2023-03-04T21:39:47.286Z,70.02
2023-03-04T21:42:13.994Z,69.76
2023-03-04T21:44:49.014Z,69.74
2023-03-04T21:47:16.985Z,70.23
2023-03-04T21:49:43.544Z,69.26
2023-03-04T21:52:10.024Z,70.28
2023-03-04T21:54:36.593Z,69.86
2023-03-04T21:57:03.331Z,69.98
2023-03-04T21:59:29.875Z,69.76
2023-03-04T22:01:56.495Z,70.10
2023-03-04T22:04:23.070Z,70.32
2023-03-04T22:06:49.625Z,69.89
2023-03-04T22:09:16.152Z,70.18
2023-03-04T22:11:42.739Z,70.25
2023-03-04T22:14:10.648Z,70.35
2023-03-04T22:16:48.993Z,70.24
2023-03-04T22:19:19.524Z,69.65
2023-03-04T22:21:46.179Z,69.40
2023-03-04T22:24:12.671Z,70.07
2023-03-04T22:26:39.146Z,69.63
2023-03-04T22:29:06.386Z,69.87
2023-03-04T22:31:35.112Z,69.53
2023-03-04T22:34:07.665Z,69.84
2023-03-04T22:36:36.744Z,70.43
2023-03-04T22:39:06.317Z,70.12
2023-03-04T22:41:33.328Z,70.29
2023-03-04T22:44:00.336Z,69.91
2023-03-04T22:46:30.602Z,69.84
2023-03-04T22:48:59.483Z,69.82
2023-03-04T22:51:26.493Z,69.47
2023-03-04T22:53:53.178Z,69.71
2023-03-04T22:56:20.405Z,69.48
2023-03-04T22:58:47.965Z,68.86
2023-03-04T23:01:16.483Z,69.27
2023-03-04T23:03:45.554Z,69.72
2023-03-04T23:06:14.955Z,69.61
2023-03-04T23:08:44.146Z,69.28
2023-03-04T23:11:13.629Z,69.00
2023-03-04T23:13:41.233Z,69.13
2023-03-04T23:16:10.429Z,69.62
2023-03-04T23:18:39.090Z,69.53
2023-03-04T23:21:11.000Z,69.64
2023-03-04T23:23:38.923Z,69.50
2023-03-04T23:26:05.967Z,68.74
2023-03-04T23:28:32.619Z,69.17
2023-03-04T23:30:59.139Z,69.24
2023-03-04T23:33:25.765Z,68.24
2023-03-04T23:35:52.335Z,68.34
2023-03-04T23:38:18.903Z,68.66
2023-03-04T23:40:45.391Z,68.66
2023-03-04T23:43:11.876Z,68.67
2023-03-04T23:45:38.342Z,69.49
2023-03-04T23:48:05.148Z,70.15
2023-03-04T23:50:32.211Z,70.42
2023-03-04T23:52:58.722Z,70.08
2023-03-04T23:55:25.269Z,70.00
2023-03-04T23:57:51.713Z,69.83
